createdAt,value
2022-12-05T00:00:38.808Z,1.70
2022-12-05T00:03:05.952Z,1.70
2022-12-05T00:05:32.985Z,1.70
2022-12-05T00:08:00.162Z,1.70
2022-12-05T00:10:27.292Z,1.70
2022-12-05T00:12:54.337Z,1.70
2022-12-05T00:15:21.391Z,1.70
2022-12-05T00:17:49.011Z,1.70
2022-12-05T00:20:16.070Z,1.70
2022-12-05T00:22:43.689Z,1.70
2022-12-05T00:25:10.738Z,1.70
2022-12-05T00:27:39.821Z,1.70
2022-12-05T00:30:07.142Z,1.70
2022-12-05T00:32:34.222Z,1.70
2022-12-05T00:35:01.271Z,1.70
2022-12-05T00:37:28.391Z,1.70
2022-12-05T00:39:56.661Z,1.70
2022-12-05T00:42:23.863Z,1.80
2022-12-05T00:44:50.959Z,1.80
2022-12-05T00:47:18.065Z,1.70
2022-12-05T00:49:45.085Z,1.70
2022-12-05T00:52:12.163Z,1.70
2022-12-05T00:54:39.210Z,1.70
2022-12-05T00:57:06.273Z,1.70
2022-12-05T00:59:33.303Z,1.70
2022-12-05T01:02:00.508Z,1.80
2022-12-05T01:04:27.576Z,1.80
2022-12-05T01:06:55.830Z,1.70
2022-12-05T01:09:22.933Z,1.70
2022-12-05T01:11:49.998Z,1.70
2022-12-05T01:14:18.044Z,1.70
2022-12-05T01:16:45.655Z,1.70
2022-12-05T01:19:14.013Z,1.70
2022-12-05T01:21:41.543Z,1.70
2022-12-05T01:24:09.041Z,1.70
2022-12-05T01:26:36.098Z,1.70
2022-12-05T01:29:03.680Z,1.70
2022-12-05T01:31:31.718Z,1.70
2022-12-05T01:33:59.355Z,1.70
2022-12-05T01:36:26.675Z,1.80
2022-12-05T01:38:53.763Z,1.80
2022-12-05T01:41:22.334Z,1.80
2022-12-05T01:43:59.620Z,1.80
2022-12-05T01:46:27.251Z,1.80
2022-12-05T01:48:55.786Z,1.80
2022-12-05T01:51:23.074Z,1.80
2022-12-05T01:53:50.144Z,1.80
2022-12-05T01:56:17.182Z,1.80
2022-12-05T01:58:44.311Z,1.80
2022-12-05T02:01:12.490Z,1.80
2022-12-05T02:03:39.803Z,1.80
2022-12-05T02:06:06.968Z,1.80
2022-12-05T02:08:34.035Z,1.80
2022-12-05T02:11:01.116Z,1.80
2022-12-05T02:13:32.390Z,1.70
2022-12-05T02:16:03.094Z,1.70
2022-12-05T02:18:42.226Z,1.70
2022-12-05T02:21:21.508Z,1.70
2022-12-05T02:23:51.535Z,1.70
2022-12-05T02:26:33.812Z,1.70
2022-12-05T02:29:13.147Z,1.70
2022-12-05T02:31:56.418Z,1.70
2022-12-05T02:34:28.059Z,1.70
2022-12-05T02:37:00.542Z,1.70
2022-12-05T02:39:30.780Z,1.70
2022-12-05T02:42:13.358Z,1.70
2022-12-05T02:44:42.672Z,1.60
2022-12-05T02:47:09.859Z,1.70
2022-12-05T02:49:37.119Z,1.60
2022-12-05T02:52:05.413Z,1.60
2022-12-05T02:54:33.770Z,1.60
2022-12-05T02:57:00.850Z,1.60
2022-12-05T02:59:28.108Z,1.60
2022-12-05T03:01:55.305Z,1.60
2022-12-05T03:04:22.807Z,1.60
2022-12-05T03:06:54.209Z,1.60
2022-12-05T03:09:22.167Z,1.60
2022-12-05T03:11:49.839Z,1.60
2022-12-05T03:14:17.941Z,1.60
2022-12-05T03:16:47.407Z,1.60
2022-12-05T03:19:15.825Z,1.60
2022-12-05T03:21:44.879Z,1.60
2022-12-05T03:24:13.051Z,1.60
2022-12-05T03:26:40.074Z,1.60
2022-12-05T03:29:10.095Z,1.60
2022-12-05T03:31:42.727Z,1.60
2022-12-05T03:34:11.716Z,1.60
2022-12-05T03:36:39.828Z,1.60
2022-12-05T03:39:11.434Z,1.60
2022-12-05T03:41:40.500Z,1.60
2022-12-05T03:44:13.323Z,1.60
2022-12-05T03:46:43.505Z,1.70
2022-12-05T03:49:33.707Z,1.70
2022-12-05T03:52:09.679Z,1.60
2022-12-05T03:54:41.570Z,1.70
2022-12-05T03:57:10.468Z,1.70
2022-12-05T03:59:45.616Z,1.70
2022-12-05T04:02:27.189Z,1.70
2022-12-05T04:04:55.403Z,1.70
2022-12-05T04:07:22.447Z,1.70
2022-12-05T04:09:50.526Z,1.70
2022-12-05T04:12:19.610Z,1.70
2022-12-05T04:14:47.583Z,1.70
2022-12-05T04:17:30.232Z,1.70
2022-12-05T04:20:26.199Z,1.70
2022-12-05T04:22:53.228Z,1.70
2022-12-05T04:25:35.620Z,1.70
2022-12-05T04:28:03.043Z,1.70
2022-12-05T04:30:40.629Z,1.70
2022-12-05T04:33:14.558Z,1.80
2022-12-05T04:35:46.155Z,1.80
2022-12-05T04:38:15.458Z,1.80
2022-12-05T04:40:48.893Z,1.80
2022-12-05T04:43:16.270Z,1.80
2022-12-05T04:45:43.345Z,1.80
2022-12-05T04:48:11.714Z,1.80
2022-12-05T04:50:38.792Z,1.80
2022-12-05T04:53:05.855Z,1.90
2022-12-05T04:55:33.506Z,1.90
2022-12-05T04:58:00.497Z,1.90
2022-12-05T05:00:27.952Z,1.90
2022-12-05T05:02:56.219Z,1.90
2022-12-05T05:05:23.328Z,1.90
2022-12-05T05:07:51.363Z,1.90
2022-12-05T05:10:23.084Z,1.90
2022-12-05T05:12:50.165Z,1.90
2022-12-05T05:15:17.214Z,1.90
2022-12-05T05:17:44.307Z,1.90
2022-12-05T05:20:23.762Z,2.00
2022-12-05T05:22:54.535Z,2.00
2022-12-05T05:25:21.738Z,2.00
2022-12-05T05:27:50.137Z,2.00
2022-12-05T05:30:17.625Z,2.00
2022-12-05T05:32:44.760Z,2.00
2022-12-05T05:35:11.900Z,2.00
2022-12-05T05:37:39.234Z,2.00
2022-12-05T05:40:11.142Z,2.00
2022-12-05T05:42:42.100Z,2.10
2022-12-05T05:45:09.621Z,2.00
2022-12-05T05:47:36.671Z,2.00
2022-12-05T05:50:04.143Z,2.10
2022-12-05T05:52:34.750Z,2.10
2022-12-05T05:55:02.042Z,2.10
2022-12-05T05:57:29.164Z,2.10
2022-12-05T05:59:56.564Z,2.10
2022-12-05T06:02:23.992Z,2.10
2022-12-05T06:04:51.087Z,2.10
2022-12-05T06:07:18.225Z,2.20
2022-12-05T06:09:45.401Z,2.20
2022-12-05T06:12:12.499Z,2.20
2022-12-05T06:14:39.572Z,2.20
2022-12-05T06:17:06.706Z,2.20
2022-12-05T06:19:33.814Z,2.20
2022-12-05T06:22:00.961Z,2.20
2022-12-05T06:24:28.098Z,2.30
2022-12-05T06:26:55.264Z,2.20
2022-12-05T06:29:25.677Z,2.30
2022-12-05T06:31:53.983Z,2.30
2022-12-05T06:34:21.243Z,2.30
2022-12-05T06:36:48.406Z,2.30
2022-12-05T06:39:15.529Z,2.30
2022-12-05T06:41:42.608Z,2.30
2022-12-05T06:44:09.691Z,2.30
2022-12-05T06:46:36.771Z,2.30
2022-12-05T06:49:03.984Z,2.30
2022-12-05T06:51:31.138Z,2.30
2022-12-05T06:53:58.235Z,2.40
2022-12-05T06:56:25.366Z,2.40
2022-12-05T06:58:53.517Z,2.40
2022-12-05T07:01:40.821Z,2.40
2022-12-05T07:04:10.702Z,2.50
2022-12-05T07:06:37.823Z,2.50
2022-12-05T07:09:04.951Z,2.50
2022-12-05T07:11:32.092Z,2.50
2022-12-05T07:13:59.245Z,2.50
2022-12-05T07:16:27.401Z,2.50
2022-12-05T07:18:54.561Z,2.50
2022-12-05T07:21:22.198Z,2.60
2022-12-05T07:23:52.329Z,2.60
2022-12-05T07:26:21.315Z,2.60
2022-12-05T07:28:48.432Z,2.60
2022-12-05T07:31:19.930Z,2.60
2022-12-05T07:33:47.115Z,2.60
2022-12-05T07:36:58.209Z,2.60
2022-12-05T07:39:25.561Z,2.60
2022-12-05T07:41:53.712Z,2.60
2022-12-05T07:44:20.838Z,2.60
2022-12-05T07:46:47.932Z,2.60
2022-12-05T07:49:15.911Z,2.60
2022-12-05T07:51:42.973Z,2.70
2022-12-05T07:54:10.056Z,2.70
2022-12-05T07:56:37.185Z,2.70
2022-12-05T07:59:04.237Z,2.70
2022-12-05T08:01:31.460Z,2.80
2022-12-05T08:03:58.799Z,2.80
2022-12-05T08:06:32.340Z,2.80
2022-12-05T08:09:08.589Z,2.80
2022-12-05T08:11:58.557Z,2.90
2022-12-05T08:14:25.661Z,2.90
2022-12-05T08:16:56.902Z,2.90
2022-12-05T08:19:24.013Z,2.80
2022-12-05T08:21:52.371Z,2.90
2022-12-05T08:24:19.451Z,2.90
2022-12-05T08:26:49.036Z,2.90
2022-12-05T08:29:16.272Z,2.90
2022-12-05T08:31:44.415Z,2.90
2022-12-05T08:34:11.824Z,2.90
2022-12-05T08:36:38.950Z,2.90
2022-12-05T08:39:06.711Z,2.90
2022-12-05T08:41:34.782Z,3.00
2022-12-05T08:44:04.166Z,3.00
2022-12-05T08:46:32.119Z,3.00
2022-12-05T08:48:59.293Z,3.10
2022-12-05T08:51:26.356Z,3.10
2022-12-05T08:53:53.600Z,3.10
2022-12-05T08:56:27.421Z,3.20
2022-12-05T08:59:01.252Z,3.20
2022-12-05T09:02:12.627Z,3.20
2022-12-05T09:04:39.828Z,3.30
2022-12-05T09:07:08.202Z,3.30
2022-12-05T09:09:35.364Z,3.30
2022-12-05T09:12:27.505Z,3.40
2022-12-05T09:14:54.583Z,3.40
2022-12-05T09:17:31.948Z,3.40
2022-12-05T09:19:59.041Z,3.40
2022-12-05T09:22:26.149Z,3.40
2022-12-05T09:24:53.232Z,3.40
2022-12-05T09:31:15.270Z,3.40
2022-12-05T09:33:43.469Z,3.40
2022-12-05T09:36:13.642Z,3.40
2022-12-05T09:38:40.692Z,3.40
2022-12-05T09:41:21.997Z,3.40
2022-12-05T09:43:50.625Z,3.50
2022-12-05T09:46:23.729Z,3.50
2022-12-05T09:48:50.936Z,3.50
2022-12-05T09:51:18.021Z,3.50
2022-12-05T09:53:52.043Z,3.40
2022-12-05T09:56:32.244Z,3.50
2022-12-05T09:59:00.827Z,3.50
2022-12-05T10:01:48.332Z,3.40
2022-12-05T10:04:24.999Z,3.50
2022-12-05T10:06:55.127Z,3.50
2022-12-05T10:09:45.752Z,3.50
2022-12-05T10:12:28.187Z,3.50
2022-12-05T10:14:58.648Z,3.60
2022-12-05T10:17:25.910Z,3.60
2022-12-05T10:19:53.817Z,3.60
2022-12-05T10:22:41.119Z,3.60
2022-12-05T10:25:09.324Z,3.60
2022-12-05T10:27:40.201Z,3.60
2022-12-05T10:30:14.138Z,3.70
2022-12-05T10:32:56.574Z,3.70
2022-12-05T10:35:24.792Z,3.70
2022-12-05T10:37:52.901Z,3.70
2022-12-05T10:40:20.166Z,3.80
2022-12-05T10:42:48.918Z,3.80
2022-12-05T10:45:17.521Z,3.80
2022-12-05T10:47:44.804Z,3.90
2022-12-05T10:50:22.955Z,3.90
2022-12-05T10:52:50.601Z,3.90
2022-12-05T10:55:17.807Z,3.90
2022-12-05T10:57:49.105Z,4.00
2022-12-05T11:00:17.764Z,4.00
2022-12-05T11:02:45.194Z,4.00
2022-12-05T11:05:12.256Z,4.00
2022-12-05T11:07:49.537Z,4.10
2022-12-05T11:10:40.849Z,4.10
2022-12-05T11:13:14.856Z,4.10
2022-12-05T11:15:49.408Z,4.20
2022-12-05T11:18:25.342Z,4.20
2022-12-05T11:20:56.694Z,4.20
2022-12-05T11:23:28.664Z,4.20
2022-12-05T11:25:56.279Z,4.20
2022-12-05T11:28:24.547Z,4.20
2022-12-05T11:30:57.858Z,4.20
2022-12-05T11:33:25.383Z,4.20
2022-12-05T11:35:52.440Z,4.30
2022-12-05T11:38:19.796Z,4.30
2022-12-05T11:40:49.871Z,4.30
2022-12-05T11:43:29.203Z,4.40
2022-12-05T11:46:05.532Z,4.40
2022-12-05T11:52:48.019Z,4.40
2022-12-05T11:55:16.527Z,4.50
2022-12-05T11:57:57.161Z,4.60
2022-12-05T12:00:37.973Z,4.60
2022-12-05T12:03:14.202Z,4.50
2022-12-05T12:06:00.056Z,4.50
2022-12-05T12:08:27.734Z,4.50
2022-12-05T12:11:07.956Z,4.50
2022-12-05T12:13:55.202Z,4.50
2022-12-05T12:16:27.235Z,4.50
2022-12-05T12:19:19.334Z,4.50
2022-12-05T12:22:15.909Z,4.50
2022-12-05T12:25:01.839Z,4.50
2022-12-05T12:27:36.828Z,4.50
2022-12-05T12:30:28.618Z,4.50
2022-12-05T12:33:03.802Z,4.50
2022-12-05T12:35:40.226Z,4.50
2022-12-05T12:38:35.414Z,4.60
2022-12-05T12:41:08.798Z,4.50
2022-12-05T12:43:57.314Z,4.50
2022-12-05T12:46:43.323Z,4.50
2022-12-05T12:49:29.271Z,4.50
2022-12-05T12:52:03.267Z,4.50
2022-12-05T12:55:02.270Z,4.50
2022-12-05T12:57:24.299Z,4.50
2022-12-05T13:00:03.263Z,4.50
2022-12-05T13:02:37.800Z,4.60
2022-12-05T13:05:27.146Z,4.50
2022-12-05T13:07:55.776Z,4.50
2022-12-05T13:10:25.905Z,4.50
2022-12-05T13:12:53.348Z,4.50
2022-12-05T13:15:23.627Z,4.60
2022-12-05T13:17:50.770Z,4.60
2022-12-05T13:20:18.949Z,4.50
2022-12-05T13:22:46.100Z,4.50
2022-12-05T13:25:14.313Z,4.50
2022-12-05T13:27:42.861Z,4.50
2022-12-05T13:30:16.076Z,4.50
2022-12-05T13:32:43.628Z,4.50
2022-12-05T13:35:40.108Z,4.50
2022-12-05T13:38:31.387Z,4.50
2022-12-05T13:41:17.273Z,4.50
2022-12-05T13:43:49.754Z,4.50
2022-12-05T13:46:28.169Z,4.40
2022-12-05T13:49:06.829Z,4.40
2022-12-05T13:51:36.252Z,4.50
2022-12-05T13:54:24.653Z,4.40
2022-12-05T13:57:02.998Z,4.50
2022-12-05T14:03:35.612Z,4.40
2022-12-05T14:06:02.659Z,4.30
2022-12-05T14:08:35.946Z,4.30
2022-12-05T14:11:09.609Z,4.30
2022-12-05T14:13:41.190Z,4.20
2022-12-05T14:16:40.867Z,4.20
2022-12-05T14:19:12.810Z,4.20
2022-12-05T14:22:02.630Z,4.20
2022-12-05T14:24:35.561Z,4.20
2022-12-05T14:27:22.545Z,4.20
2022-12-05T14:29:56.021Z,4.20
2022-12-05T14:32:25.285Z,4.20
2022-12-05T14:34:57.929Z,4.30
2022-12-05T14:37:27.182Z,4.20
2022-12-05T14:39:56.522Z,4.20
2022-12-05T14:42:44.115Z,4.20
2022-12-05T14:48:48.180Z,4.20
2022-12-05T14:51:30.754Z,4.20
2022-12-05T14:54:03.042Z,4.20
2022-12-05T14:56:35.002Z,4.20
2022-12-05T14:59:05.336Z,4.20
2022-12-05T15:01:49.792Z,4.10
2022-12-05T15:04:22.622Z,4.10
2022-12-05T15:06:49.867Z,4.10
2022-12-05T15:09:37.055Z,4.20
2022-12-05T15:12:09.604Z,4.10
2022-12-05T15:14:42.326Z,4.10
2022-12-05T15:17:11.232Z,4.10
2022-12-05T15:19:42.687Z,4.10
2022-12-05T15:22:09.781Z,4.10
2022-12-05T15:24:37.538Z,4.10
2022-12-05T15:27:05.371Z,4.10
2022-12-05T15:29:33.661Z,4.10
2022-12-05T15:32:06.196Z,4.10
2022-12-05T15:34:45.886Z,4.10
2022-12-05T15:37:19.981Z,4.00
2022-12-05T15:39:56.298Z,4.00
2022-12-05T15:42:36.143Z,4.00
2022-12-05T15:45:13.789Z,4.00
2022-12-05T15:47:40.923Z,4.00
2022-12-05T15:50:14.677Z,4.00
2022-12-05T15:52:44.630Z,4.00
2022-12-05T15:55:12.859Z,4.00
2022-12-05T15:57:44.874Z,4.00
2022-12-05T16:00:15.937Z,4.00
2022-12-05T16:02:43.213Z,4.00
2022-12-05T16:05:21.180Z,4.00
2022-12-05T16:07:48.800Z,4.00
2022-12-05T16:10:16.346Z,4.00
2022-12-05T16:12:43.404Z,4.00
2022-12-05T16:15:15.121Z,4.00
2022-12-05T16:17:42.797Z,4.00
2022-12-05T16:20:10.796Z,4.00
2022-12-05T16:22:37.995Z,3.90
2022-12-05T16:25:11.656Z,3.90
2022-12-05T16:27:39.524Z,3.90
2022-12-05T16:30:08.938Z,3.90
2022-12-05T16:32:36.026Z,3.90
2022-12-05T16:35:03.303Z,3.90
2022-12-05T16:37:31.494Z,3.90
2022-12-05T16:39:58.921Z,3.90
2022-12-05T16:42:26.776Z,3.90
2022-12-05T16:45:02.783Z,3.90
2022-12-05T16:47:42.122Z,3.90
2022-12-05T16:50:27.991Z,3.90
2022-12-05T16:53:13.408Z,3.90
2022-12-05T16:55:40.578Z,3.90
2022-12-05T16:58:09.746Z,3.90
2022-12-05T17:00:36.860Z,3.90
2022-12-05T17:03:32.239Z,3.90
2022-12-05T17:05:51.224Z,3.90
2022-12-05T17:08:18.375Z,3.90
2022-12-05T17:10:45.494Z,3.90
2022-12-05T17:13:15.752Z,3.90
2022-12-05T17:15:42.905Z,3.90
2022-12-05T17:18:14.048Z,3.90
2022-12-05T17:20:41.506Z,3.90
2022-12-05T17:23:14.312Z,3.90
2022-12-05T17:25:49.450Z,3.90
2022-12-05T17:28:16.497Z,3.80
2022-12-05T17:30:43.767Z,3.90
2022-12-05T17:33:11.750Z,3.80
2022-12-05T17:35:38.843Z,3.90
2022-12-05T17:38:05.923Z,3.80
2022-12-05T17:40:33.103Z,3.80
2022-12-05T17:43:01.217Z,3.80
2022-12-05T17:45:28.322Z,3.80
2022-12-05T17:47:55.718Z,3.80
2022-12-05T17:50:23.163Z,3.80
2022-12-05T17:52:50.569Z,3.70
2022-12-05T17:55:20.565Z,3.70
2022-12-05T17:57:47.750Z,3.70
2022-12-05T18:00:15.663Z,3.70
2022-12-05T18:02:43.322Z,3.70
2022-12-05T18:05:11.079Z,3.60
2022-12-05T18:07:38.656Z,3.60
2022-12-05T18:10:12.380Z,3.60
2022-12-05T18:12:40.866Z,3.60
2022-12-05T18:15:08.257Z,3.60
2022-12-05T18:17:35.334Z,3.60
2022-12-05T18:20:03.932Z,3.60
2022-12-05T18:22:30.982Z,3.60
2022-12-05T18:24:58.531Z,3.60
2022-12-05T18:27:26.018Z,3.50
2022-12-05T18:29:53.853Z,3.50
2022-12-05T18:32:24.997Z,3.50
2022-12-05T18:34:52.098Z,3.50
2022-12-05T18:37:19.259Z,3.50
2022-12-05T18:39:50.933Z,3.50
2022-12-05T18:42:18.014Z,3.40
2022-12-05T18:44:45.172Z,3.40
2022-12-05T18:47:22.706Z,3.40
2022-12-05T18:49:49.775Z,3.30
2022-12-05T18:52:31.190Z,3.30
2022-12-05T18:55:16.299Z,3.30
2022-12-05T18:58:10.870Z,3.20
2022-12-05T19:01:05.453Z,3.20
2022-12-05T19:03:33.238Z,3.20
2022-12-05T19:06:00.294Z,3.20
2022-12-05T19:12:26.566Z,3.10
2022-12-05T19:14:58.938Z,3.10
2022-12-05T19:17:26.271Z,3.00
2022-12-05T19:19:58.537Z,3.00
2022-12-05T19:22:27.116Z,2.90
2022-12-05T19:24:54.275Z,2.90
2022-12-05T19:31:22.162Z,2.80
2022-12-05T19:33:50.203Z,2.90
2022-12-05T19:36:23.338Z,2.80
2022-12-05T19:38:51.076Z,2.80
2022-12-05T19:41:19.676Z,2.80
2022-12-05T19:43:52.846Z,2.80
2022-12-05T19:46:24.903Z,2.80
2022-12-05T19:48:53.209Z,2.80
2022-12-05T19:54:57.033Z,2.80
2022-12-05T19:57:27.069Z,2.80
2022-12-05T19:59:57.107Z,2.80
2022-12-05T20:02:25.217Z,2.80
2022-12-05T20:04:52.388Z,2.80
2022-12-05T20:07:19.512Z,2.80
2022-12-05T20:09:46.634Z,2.80
2022-12-05T20:12:14.693Z,2.80
2022-12-05T20:14:41.753Z,2.80
2022-12-05T20:17:08.851Z,2.80
2022-12-05T20:19:36.030Z,2.80
2022-12-05T20:22:03.093Z,2.80
2022-12-05T20:24:30.183Z,2.80
2022-12-05T20:26:57.261Z,2.80
2022-12-05T20:29:25.534Z,2.80
2022-12-05T20:31:56.549Z,2.80
2022-12-05T20:34:23.721Z,2.70
2022-12-05T20:36:50.786Z,2.70
2022-12-05T20:39:17.889Z,2.70
2022-12-05T20:41:45.162Z,2.70
2022-12-05T20:44:13.733Z,2.70
2022-12-05T20:46:41.481Z,2.60
2022-12-05T20:49:08.814Z,2.60
2022-12-05T20:51:35.960Z,2.60
2022-12-05T20:54:03.355Z,2.60
2022-12-05T20:56:31.743Z,2.60
2022-12-05T20:59:00.147Z,2.50
2022-12-05T21:01:27.532Z,2.50
2022-12-05T21:03:54.707Z,2.50
2022-12-05T21:06:22.601Z,2.50
2022-12-05T21:08:49.939Z,2.50
2022-12-05T21:11:17.010Z,2.50
2022-12-05T21:13:44.070Z,2.50
2022-12-05T21:16:12.907Z,2.50
2022-12-05T21:18:41.180Z,2.50
2022-12-05T21:21:14.501Z,2.50
2022-12-05T21:23:42.232Z,2.50
2022-12-05T21:26:10.821Z,2.50
2022-12-05T21:28:37.960Z,2.50
2022-12-05T21:31:06.175Z,2.50
2022-12-05T21:33:33.302Z,2.50
2022-12-05T21:36:01.420Z,2.50
2022-12-05T21:38:28.595Z,2.50
2022-12-05T21:40:55.707Z,2.50
2022-12-05T21:43:22.815Z,2.40
2022-12-05T21:45:53.592Z,2.40
2022-12-05T21:48:21.279Z,2.40
2022-12-05T21:50:48.650Z,2.40
2022-12-05T21:53:15.991Z,2.40
2022-12-05T21:55:43.409Z,2.40
2022-12-05T21:58:10.676Z,2.40
2022-12-05T22:00:37.850Z,2.40
2022-12-05T22:03:05.051Z,2.50
2022-12-05T22:05:33.325Z,2.40
2022-12-05T22:08:04.836Z,2.40
2022-12-05T22:10:33.996Z,2.40
2022-12-05T22:13:01.096Z,2.30
2022-12-05T22:15:28.211Z,2.40
2022-12-05T22:17:55.293Z,2.30
2022-12-05T22:20:22.387Z,2.30
2022-12-05T22:22:49.455Z,2.40
2022-12-05T22:25:16.650Z,2.40
2022-12-05T22:27:43.752Z,2.40
2022-12-05T22:30:10.943Z,2.40
2022-12-05T22:32:38.007Z,2.30
2022-12-05T22:35:05.187Z,2.40
2022-12-05T22:37:32.284Z,2.40
2022-12-05T22:39:59.726Z,2.30
2022-12-05T22:42:27.234Z,2.30
2022-12-05T22:44:54.304Z,2.30
2022-12-05T22:47:21.395Z,2.30
2022-12-05T22:49:48.567Z,2.40
2022-12-05T22:52:15.608Z,2.40
2022-12-05T22:54:42.625Z,2.30
2022-12-05T22:57:09.677Z,2.40
2022-12-05T22:59:37.765Z,2.30
2022-12-05T23:02:04.809Z,2.40
2022-12-05T23:04:31.897Z,2.40
2022-12-05T23:06:59.389Z,2.40
2022-12-05T23:09:27.079Z,2.40
2022-12-05T23:11:54.114Z,2.40
2022-12-05T23:14:21.211Z,2.40
2022-12-05T23:16:48.528Z,2.40
2022-12-05T23:19:15.675Z,2.40
2022-12-05T23:21:42.738Z,2.40
2022-12-05T23:24:10.494Z,2.40
2022-12-05T23:26:46.636Z,2.40
2022-12-05T23:29:13.924Z,2.40
2022-12-05T23:31:41.214Z,2.40
2022-12-05T23:34:08.330Z,2.40
2022-12-05T23:36:36.463Z,2.40
2022-12-05T23:39:05.147Z,2.40
2022-12-05T23:41:32.203Z,2.40
2022-12-05T23:43:59.267Z,2.40
2022-12-05T23:46:27.500Z,2.40
2022-12-05T23:48:55.156Z,2.40
2022-12-05T23:51:22.980Z,2.40
2022-12-05T23:53:57.269Z,2.40
2022-12-05T23:56:25.344Z,2.50
2022-12-05T23:58:53.050Z,2.40
